Time;durP1;ratioP1;P1;durP2;ratioP2;P2;SDS_P1;SDS_P2;PMS_P1;PMS_P2;Temp;Humidity;BMP_temperature;BMP_pressure;BME280_temperature;BME280_humidity;BME280_pressure;Samples;Min_cycle;Max_cycle;Signal;HPM_P1;HPM_P2
2022/01/16 00:02:08;;;;;;;3.60;2.90;;;2.60;99.90;;;;;;5011680;28;20215;-78
2022/01/16 00:04:34;;;;;;;3.60;2.42;;;2.60;99.90;;;;;;5012065;28;20290;-77
2022/01/16 00:07:04;;;;;;;0.68;0.68;;;2.60;99.90;;;;;;5011743;28;20226;-78
2022/01/16 00:09:31;;;;;;;8.82;5.15;;;2.50;99.90;;;;;;5012255;28;20199;-77
2022/01/16 00:12:00;;;;;;;7.05;3.63;;;2.50;99.90;;;;;;5015875;28;20215;-77
2022/01/16 00:14:30;;;;;;;0.98;0.73;;;2.50;99.90;;;;;;5015746;28;20224;-76
2022/01/16 00:16:56;;;;;;;0.80;0.80;;;2.50;99.90;;;;;;5015965;28;20192;-77
2022/01/16 00:19:23;;;;;;;1.23;1.23;;;2.50;99.90;;;;;;5015701;28;20207;-77
2022/01/16 00:21:50;;;;;;;0.40;0.40;;;2.40;99.90;;;;;;5015490;28;20234;-77
2022/01/16 00:24:17;;;;;;;7.60;5.60;;;2.40;99.90;;;;;;5015476;28;20199;-77
2022/01/16 00:26:43;;;;;;;13.90;4.93;;;2.40;99.90;;;;;;5016073;28;20199;-77
2022/01/16 00:29:12;;;;;;;1.77;1.67;;;2.20;99.90;;;;;;5015352;28;20566;-77
2022/01/16 00:31:42;;;;;;;4.95;4.32;;;2.20;99.90;;;;;;5015885;28;20242;-77
2022/01/16 00:34:12;;;;;;;5.25;4.80;;;2.10;99.90;;;;;;5015785;28;20207;-77
2022/01/16 00:36:39;;;;;;;12.35;5.35;;;2.20;99.90;;;;;;5014894;28;20270;-78
2022/01/16 00:39:06;;;;;;;5.70;5.10;;;2.10;99.90;;;;;;5014945;28;20211;-77
2022/01/16 00:41:35;;;;;;;0.88;0.88;;;2.10;99.90;;;;;;5014622;28;20216;-78
2022/01/16 00:44:02;;;;;;;6.30;3.53;;;2.10;99.90;;;;;;5015921;28;20565;-78
2022/01/16 00:46:28;;;;;;;2.67;2.38;;;2.00;99.90;;;;;;5015154;28;20620;-76
2022/01/16 00:48:57;;;;;;;9.55;5.38;;;2.10;99.90;;;;;;5015049;28;20581;-77
2022/01/16 00:51:24;;;;;;;1.92;1.92;;;2.10;99.90;;;;;;5015005;28;20684;-77
2022/01/16 00:53:51;;;;;;;14.55;3.55;;;2.10;99.90;;;;;;5015240;28;20207;-77
2022/01/16 00:56:18;;;;;;;4.10;3.75;;;2.10;99.90;;;;;;5015278;28;20724;-77
2022/01/16 00:58:45;;;;;;;6.20;3.53;;;2.10;99.90;;;;;;5015289;28;20558;-76
2022/01/16 01:01:12;;;;;;;5.13;4.72;;;2.20;99.90;;;;;;5014444;28;20226;-78
2022/01/16 01:03:38;;;;;;;3.20;2.80;;;2.20;99.90;;;;;;5015167;28;20680;-77
2022/01/16 01:06:08;;;;;;;7.18;6.65;;;2.20;99.90;;;;;;5014867;28;20196;-77
2022/01/16 01:08:35;;;;;;;1.40;1.38;;;2.30;99.90;;;;;;5015119;28;20199;-77
2022/01/16 01:11:06;;;;;;;2.95;1.23;;;2.20;99.90;;;;;;5014119;28;20224;-77
2022/01/16 01:13:43;;;;;;;8.77;3.45;;;2.30;99.90;;;;;;5014600;28;20199;-77
2022/01/16 01:16:15;;;;;;;2.65;2.45;;;2.30;99.90;;;;;;5015193;28;20686;-78
2022/01/16 01:18:43;;;;;;;4.78;2.95;;;2.30;99.90;;;;;;5015307;28;20211;-77
2022/01/16 01:21:24;;;;;;;5.63;3.83;;;2.20;99.90;;;;;;5013269;28;20234;-77
2022/01/16 01:23:51;;;;;;;2.75;1.92;;;2.20;99.90;;;;;;5014687;28;20191;-77
2022/01/16 01:26:18;;;;;;;3.20;2.13;;;2.20;99.90;;;;;;5014750;28;20201;-77
2022/01/16 01:28:45;;;;;;;3.40;2.78;;;2.20;99.90;;;;;;5014957;28;20250;-77
2022/01/16 01:31:12;;;;;;;3.97;3.75;;;2.20;99.90;;;;;;5014684;28;20226;-75
2022/01/16 01:33:39;;;;;;;4.70;4.10;;;2.20;99.90;;;;;;5014067;28;20199;-78
2022/01/16 01:36:05;;;;;;;6.95;6.38;;;2.20;99.90;;;;;;5014575;28;20219;-78
2022/01/16 01:38:33;;;;;;;3.17;2.97;;;2.20;99.90;;;;;;5014553;28;20206;-76
2022/01/16 01:41:00;;;;;;;2.05;1.95;;;2.20;99.90;;;;;;5013631;28;20208;-77
2022/01/16 01:51:55;;;;;;;11.05;6.00;;;2.20;99.90;;;;;;5011690;28;20298;-77
2022/01/16 01:54:23;;;;;;;4.65;3.03;;;2.30;99.90;;;;;;5013120;28;20194;-77
2022/01/16 01:56:50;;;;;;;2.25;1.88;;;2.30;99.90;;;;;;5014386;28;20551;-77
2022/01/16 01:59:17;;;;;;;6.00;5.45;;;2.30;99.90;;;;;;5014195;28;20206;-77
2022/01/16 02:01:44;;;;;;;2.45;2.25;;;2.30;99.90;;;;;;5014253;28;20601;-77
2022/01/16 02:04:10;;;;;;;6.05;4.03;;;2.30;99.90;;;;;;5014466;28;20543;-77
2022/01/16 02:06:37;;;;;;;6.38;3.97;;;2.30;99.90;;;;;;5014211;28;20282;-77
2022/01/16 02:09:07;;;;;;;7.43;6.72;;;2.30;99.90;;;;;;5013821;28;20294;-78
2022/01/16 02:11:36;;;;;;;6.55;5.22;;;2.30;99.90;;;;;;5013714;28;20231;-77
2022/01/16 02:14:10;;;;;;;6.55;4.68;;;2.30;99.90;;;;;;5013751;28;20199;-77
2022/01/16 02:28:02;;;;;;;9.50;5.15;;;2.40;99.90;;;;;;5013486;28;20194;-78
2022/01/16 02:35:46;;;;;;;9.02;4.70;;;2.30;99.90;;;;;;5013399;28;20231;-78
2022/01/16 02:38:15;;;;;;;4.63;2.85;;;2.40;99.90;;;;;;5013874;28;20199;-78
2022/01/16 02:40:49;;;;;;;13.40;4.47;;;2.40;99.90;;;;;;5012250;28;20220;-77
2022/01/16 02:43:18;;;;;;;1.50;0.70;;;2.30;99.90;;;;;;5012956;28;20207;-78
2022/01/16 02:45:48;;;;;;;2.25;1.52;;;2.40;99.90;;;;;;5013232;28;20203;-77
2022/01/16 02:48:15;;;;;;;2.05;1.95;;;2.40;99.90;;;;;;5013600;28;20183;-78
2022/01/16 02:50:41;;;;;;;1.33;1.27;;;2.40;99.90;;;;;;5012716;28;20227;-77
2022/01/16 02:53:11;;;;;;;11.63;7.35;;;2.50;99.90;;;;;;5013444;28;20573;-78
2022/01/16 02:55:41;;;;;;;2.95;2.70;;;2.50;99.90;;;;;;5012992;28;20230;-77
2022/01/16 02:58:09;;;;;;;10.85;5.70;;;2.40;99.90;;;;;;5013290;28;20279;-76
2022/01/16 03:00:35;;;;;;;8.68;6.82;;;2.50;99.90;;;;;;5012872;28;20202;-78
2022/01/16 03:03:02;;;;;;;2.83;2.08;;;2.50;99.90;;;;;;5012847;28;20207;-78
2022/01/16 03:05:29;;;;;;;7.68;6.38;;;2.50;99.90;;;;;;5012741;28;20581;-77
2022/01/16 03:07:55;;;;;;;17.73;10.73;;;2.50;99.90;;;;;;5012649;28;20210;-78
2022/01/16 03:13:06;;;;;;;14.15;5.35;;;2.50;99.90;;;;;;5012112;28;20196;-78
2022/01/16 03:15:33;;;;;;;9.98;8.80;;;2.50;99.90;;;;;;5012946;28;20219;-77
2022/01/16 03:23:28;;;;;;;7.28;6.25;;;2.50;99.90;;;;;;5012611;28;20550;-77
2022/01/16 03:25:55;;;;;;;13.00;6.05;;;2.60;99.90;;;;;;5012408;28;20192;-78
2022/01/16 03:28:26;;;;;;;6.65;5.22;;;2.50;99.90;;;;;;5012395;28;20203;-77
2022/01/16 03:30:53;;;;;;;10.02;8.77;;;2.50;99.90;;;;;;5012024;28;20223;-77
2022/01/16 03:33:21;;;;;;;8.25;3.55;;;2.50;99.90;;;;;;5012422;28;20207;-78
2022/01/16 03:35:48;;;;;;;9.25;3.72;;;2.50;99.90;;;;;;5012383;28;20593;-77
2022/01/16 03:38:16;;;;;;;6.28;5.80;;;2.50;99.90;;;;;;5012484;28;20199;-78
2022/01/16 03:40:42;;;;;;;17.70;8.20;;;2.50;99.90;;;;;;5011850;28;20220;-77
2022/01/16 03:43:13;;;;;;;12.50;5.90;;;2.50;99.90;;;;;;5012315;28;20203;-78
2022/01/16 03:45:43;;;;;;;7.78;7.03;;;2.50;99.90;;;;;;5011852;28;20206;-77
2022/01/16 03:48:09;;;;;;;1.15;1.05;;;2.50;99.90;;;;;;5012409;28;20203;-78
2022/01/16 03:50:36;;;;;;;10.07;7.38;;;2.50;99.90;;;;;;5012010;28;20203;-77
2022/01/16 03:53:03;;;;;;;8.30;6.63;;;2.50;99.90;;;;;;5012000;28;20214;-77
2022/01/16 03:55:30;;;;;;;1.92;1.83;;;2.50;99.90;;;;;;5012505;28;20266;-76
2022/01/16 03:57:57;;;;;;;9.98;7.28;;;2.50;99.90;;;;;;5012107;28;20689;-77
2022/01/16 04:00:24;;;;;;;11.02;3.03;;;2.50;99.90;;;;;;5012027;28;20227;-76
2022/01/16 04:02:53;;;;;;;7.72;4.80;;;2.50;99.90;;;;;;5015488;28;20213;-76
2022/01/16 04:05:20;;;;;;;15.38;12.63;;;2.40;99.90;;;;;;5012402;28;20191;-78
2022/01/16 04:07:46;;;;;;;17.83;14.70;;;2.40;99.90;;;;;;5012054;28;20206;-77
2022/01/16 04:10:13;;;;;;;1.67;1.05;;;2.40;99.90;;;;;;5012028;28;20199;-77
2022/01/16 04:12:40;;;;;;;22.63;7.72;;;2.40;99.90;;;;;;5012030;28;20700;-77
2022/01/16 04:17:54;;;;;;;2.95;2.38;;;2.40;99.90;;;;;;5011950;28;20199;-77
2022/01/16 04:20:20;;;;;;;4.13;2.25;;;2.40;99.90;;;;;;5011899;28;20203;-78
2022/01/16 04:22:48;;;;;;;16.65;10.25;;;2.40;99.90;;;;;;5064046;22;20229;-81
2022/01/16 04:25:16;;;;;;;8.15;7.43;;;2.30;99.90;;;;;;5003712;28;20581;-81
2022/01/16 04:27:43;;;;;;;5.75;5.32;;;2.30;99.90;;;;;;5004615;28;20264;-80
2022/01/16 04:30:10;;;;;;;9.25;6.90;;;2.30;99.90;;;;;;4998350;28;20220;-80
2022/01/16 04:32:37;;;;;;;2.08;1.88;;;2.30;99.90;;;;;;5015939;28;20214;-80
2022/01/16 04:35:07;;;;;;;9.05;4.82;;;2.30;99.90;;;;;;5015402;28;20207;-79
2022/01/16 04:37:33;;;;;;;1.50;1.40;;;2.30;99.90;;;;;;5016587;28;20229;-79
2022/01/16 04:40:00;;;;;;;1.95;1.85;;;2.30;99.90;;;;;;5015592;28;20255;-80
2022/01/16 04:45:12;;;;;;;9.70;8.80;;;2.20;99.90;;;;;;5016002;28;20179;-80
2022/01/16 04:47:38;;;;;;;16.65;11.90;;;2.20;99.90;;;;;;5016391;28;20199;-80
2022/01/16 04:50:11;;;;;;;2.63;2.00;;;2.20;99.90;;;;;;5015351;28;20195;-80
2022/01/16 04:52:39;;;;;;;4.78;4.43;;;2.20;99.90;;;;;;5016456;28;20219;-80
2022/01/16 04:55:07;;;;;;;14.30;7.25;;;2.20;99.90;;;;;;5016226;28;20250;-80
2022/01/16 04:57:35;;;;;;;4.40;4.15;;;2.10;99.90;;;;;;5019384;28;20231;-79
2022/01/16 05:00:02;;;;;;;14.02;9.60;;;2.10;99.90;;;;;;5018552;28;20752;-79
2022/01/16 05:02:29;;;;;;;14.13;9.18;;;2.10;99.90;;;;;;5018925;28;20306;-81
2022/01/16 05:04:55;;;;;;;12.10;6.88;;;2.10;99.90;;;;;;5018978;28;20203;-79
2022/01/16 05:07:23;;;;;;;7.50;5.75;;;2.10;99.90;;;;;;5019370;28;20199;-81
2022/01/16 05:09:50;;;;;;;10.00;4.82;;;2.10;99.90;;;;;;5019289;28;20200;-80
2022/01/16 05:12:26;;;;;;;3.80;3.50;;;2.10;99.90;;;;;;5019327;28;20228;-81
2022/01/16 05:17:36;;;;;;;14.80;10.05;;;2.10;99.90;;;;;;5018818;28;20201;-80
2022/01/16 05:20:04;;;;;;;24.00;9.00;;;2.10;99.90;;;;;;5018819;28;20526;-81
2022/01/16 05:22:32;;;;;;;53.60;15.50;;;2.10;99.90;;;;;;5018964;28;20237;-80
2022/01/16 05:24:59;;;;;;;11.13;5.55;;;2.10;99.90;;;;;;5018657;28;20203;-81
2022/01/16 05:27:26;;;;;;;5.07;4.68;;;2.10;99.90;;;;;;5018484;28;20195;-81
2022/01/16 05:29:52;;;;;;;7.90;6.97;;;2.10;99.90;;;;;;5017725;28;20289;-81
2022/01/16 05:32:19;;;;;;;4.25;3.50;;;2.20;99.90;;;;;;5017596;28;20286;-81
2022/01/16 05:34:46;;;;;;;0.50;0.50;;;2.20;99.90;;;;;;5018782;28;20192;-80
2022/01/16 05:37:12;;;;;;;24.48;4.28;;;2.20;99.90;;;;;;5018317;28;20620;-81
2022/01/16 05:39:44;;;;;;;6.38;5.85;;;2.20;99.90;;;;;;5018342;28;20198;-78
2022/01/16 05:42:12;;;;;;;14.07;6.32;;;2.30;99.90;;;;;;5018671;28;20245;-81
2022/01/16 05:44:39;;;;;;;4.88;3.25;;;2.20;99.90;;;;;;5017813;28;20271;-81
2022/01/16 05:47:10;;;;;;;8.38;7.32;;;2.30;99.90;;;;;;5018042;28;20199;-81
2022/01/16 05:49:37;;;;;;;2.95;1.70;;;2.30;99.90;;;;;;5018632;28;20238;-81
2022/01/16 05:52:04;;;;;;;5.28;4.10;;;2.30;99.90;;;;;;5018438;28;20220;-80
2022/01/16 05:54:31;;;;;;;9.80;8.02;;;2.30;99.90;;;;;;5018333;28;20578;-81
2022/01/16 05:56:59;;;;;;;7.07;5.05;;;2.40;99.90;;;;;;5018940;28;20219;-81
2022/01/16 05:59:25;;;;;;;10.30;6.22;;;2.40;99.90;;;;;;5018295;28;20196;-80
2022/01/16 06:01:52;;;;;;;4.18;2.85;;;2.40;99.90;;;;;;5018821;28;20219;-80
2022/01/16 06:04:19;;;;;;;16.35;5.85;;;2.50;99.90;;;;;;5017895;28;20207;-80
2022/01/16 06:06:45;;;;;;;15.52;8.88;;;2.50;99.90;;;;;;5018356;28;20563;-81
2022/01/16 06:09:12;;;;;;;26.33;15.32;;;2.50;99.90;;;;;;5017036;28;20199;-80
2022/01/16 06:11:39;;;;;;;7.72;6.80;;;2.40;99.90;;;;;;5018566;28;20219;-80
2022/01/16 06:14:07;;;;;;;12.93;8.30;;;2.50;99.90;;;;;;5017462;28;20684;-80
2022/01/16 06:16:35;;;;;;;5.22;4.90;;;2.50;99.90;;;;;;5017777;28;20697;-81
2022/01/16 06:19:02;;;;;;;2.60;2.50;;;2.50;99.90;;;;;;5017529;28;20208;-80
2022/01/16 06:21:28;;;;;;;5.53;3.20;;;2.60;99.90;;;;;;5017343;28;20571;-80
2022/01/16 06:23:55;;;;;;;3.55;3.10;;;2.60;99.90;;;;;;5017753;28;20202;-79
2022/01/16 06:26:22;;;;;;;17.30;6.95;;;2.60;99.90;;;;;;5018045;28;20688;-81
2022/01/16 06:28:48;;;;;;;14.57;8.00;;;2.60;99.90;;;;;;5017264;28;20211;-80
2022/01/16 06:31:16;;;;;;;27.88;9.52;;;2.70;99.90;;;;;;5018043;28;20196;-80
2022/01/16 06:33:43;;;;;;;4.38;4.03;;;2.60;99.90;;;;;;5017782;28;20207;-81
2022/01/16 06:36:10;;;;;;;2.10;1.92;;;2.70;99.90;;;;;;5017913;28;20196;-80
2022/01/16 06:38:36;;;;;;;2.40;2.28;;;2.80;99.90;;;;;;5016901;28;20207;-79
2022/01/16 06:41:03;;;;;;;16.58;9.57;;;2.80;99.90;;;;;;5017312;28;20200;-80
2022/01/16 06:43:30;;;;;;;20.85;9.52;;;2.80;99.90;;;;;;5017228;28;20226;-80
2022/01/16 06:45:57;;;;;;;21.08;9.15;;;2.80;99.90;;;;;;5016471;28;20568;-80
2022/01/16 06:48:25;;;;;;;23.60;9.27;;;2.80;99.90;;;;;;5018088;28;20188;-80
2022/01/16 06:50:52;;;;;;;11.75;8.48;;;2.80;99.90;;;;;;5016974;28;20208;-80
2022/01/16 06:53:19;;;;;;;8.80;7.90;;;2.80;99.90;;;;;;5017154;28;20220;-80
2022/01/16 06:55:46;;;;;;;20.45;12.55;;;2.90;99.90;;;;;;5017464;28;20195;-80
2022/01/16 06:58:12;;;;;;;9.68;7.25;;;2.90;99.90;;;;;;5017450;28;20228;-80
2022/01/16 07:00:39;;;;;;;14.85;7.13;;;2.90;99.90;;;;;;5016928;28;20199;-80
2022/01/16 07:03:06;;;;;;;9.77;7.25;;;2.90;99.90;;;;;;5017114;28;20220;-80
2022/01/16 07:05:34;;;;;;;10.18;5.53;;;2.90;99.90;;;;;;5017059;28;20200;-79
2022/01/16 07:08:01;;;;;;;10.60;6.55;;;2.90;99.90;;;;;;5017026;28;20476;-78
2022/01/16 07:10:27;;;;;;;17.17;10.15;;;3.00;99.90;;;;;;5016930;28;20195;-80
2022/01/16 07:12:54;;;;;;;17.58;8.35;;;3.00;99.90;;;;;;5017203;28;20216;-80
2022/01/16 07:15:21;;;;;;;6.35;5.15;;;3.00;99.90;;;;;;5016927;28;20633;-80
2022/01/16 07:17:48;;;;;;;12.85;8.15;;;3.00;99.90;;;;;;5016270;28;20216;-80
2022/01/16 07:20:15;;;;;;;20.70;9.48;;;3.00;99.90;;;;;;5017116;28;20203;-80
2022/01/16 07:22:44;;;;;;;51.00;15.35;;;3.10;99.90;;;;;;5016890;28;20243;-78
2022/01/16 07:25:11;;;;;;;11.15;9.40;;;3.10;99.90;;;;;;5016938;28;20204;-80
2022/01/16 07:27:38;;;;;;;15.80;11.13;;;3.10;99.90;;;;;;5016333;28;20215;-81
2022/01/16 07:30:06;;;;;;;4.80;4.35;;;3.10;99.90;;;;;;5016263;28;20203;-81
2022/01/16 07:32:33;;;;;;;19.80;10.60;;;3.20;99.90;;;;;;5015929;28;20256;-81
2022/01/16 07:35:00;;;;;;;9.25;7.43;;;3.10;99.90;;;;;;5015310;28;20196;-80
2022/01/16 07:37:27;;;;;;;10.77;8.10;;;3.20;99.90;;;;;;5015509;28;20216;-79
2022/01/16 07:39:55;;;;;;;47.08;20.13;;;3.20;99.90;;;;;;5014624;28;20203;-80
2022/01/16 07:42:22;;;;;;;18.48;13.07;;;3.20;99.90;;;;;;5015138;28;20741;-81
2022/01/16 07:44:49;;;;;;;11.52;8.20;;;3.20;99.90;;;;;;5014349;28;20199;-79
2022/01/16 07:47:16;;;;;;;9.63;5.63;;;3.20;99.90;;;;;;5014764;28;20202;-80
2022/01/16 07:49:42;;;;;;;9.63;8.00;;;3.20;99.90;;;;;;5014600;28;20203;-80
2022/01/16 07:52:09;;;;;;;14.10;7.93;;;3.20;99.90;;;;;;5015014;28;20705;-80
2022/01/16 07:54:36;;;;;;;24.30;4.68;;;3.20;99.90;;;;;;5015397;28;20203;-80
2022/01/16 07:57:05;;;;;;;31.63;15.63;;;3.30;99.90;;;;;;5015563;28;20208;-80
2022/01/16 07:59:31;;;;;;;13.15;5.70;;;3.30;99.90;;;;;;5014507;28;20222;-81
2022/01/16 08:01:58;;;;;;;16.45;11.13;;;3.30;99.90;;;;;;5015659;28;20562;-80
2022/01/16 08:04:25;;;;;;;10.23;3.40;;;3.30;99.90;;;;;;5015215;28;20195;-79
2022/01/16 08:06:51;;;;;;;24.77;10.73;;;3.30;99.90;;;;;;5015672;28;20211;-80
2022/01/16 08:09:18;;;;;;;9.60;6.60;;;3.30;99.90;;;;;;5016343;28;20204;-82
2022/01/16 08:11:45;;;;;;;4.85;3.55;;;3.30;99.90;;;;;;5016071;28;20227;-81
2022/01/16 08:14:13;;;;;;;10.27;4.65;;;3.30;99.90;;;;;;5015688;28;20207;-80
2022/01/16 08:16:40;;;;;;;44.50;20.10;;;3.40;99.90;;;;;;5016724;28;20657;-80
2022/01/16 08:19:06;;;;;;;14.15;7.32;;;3.40;99.90;;;;;;5015202;28;20200;-82
2022/01/16 08:21:33;;;;;;;5.97;3.88;;;3.40;99.90;;;;;;5020214;28;20235;-79
2022/01/16 08:24:03;;;;;;;16.52;6.90;;;3.40;99.90;;;;;;5018585;28;20185;-81
2022/01/16 08:26:30;;;;;;;9.88;7.90;;;3.40;99.90;;;;;;5015930;28;20196;-81
2022/01/16 08:28:57;;;;;;;18.85;14.68;;;3.40;99.90;;;;;;5015867;28;20557;-79
2022/01/16 08:31:25;;;;;;;14.57;10.20;;;3.50;99.90;;;;;;5017267;28;20207;-81
2022/01/16 08:33:52;;;;;;;6.63;4.55;;;3.50;99.90;;;;;;5020296;28;20666;-80
2022/01/16 08:36:19;;;;;;;5.35;3.33;;;3.50;99.90;;;;;;5020063;28;20192;-80
2022/01/16 08:38:45;;;;;;;12.75;6.97;;;3.50;99.90;;;;;;5019355;28;20219;-81
2022/01/16 08:41:12;;;;;;;5.13;4.72;;;3.50;99.90;;;;;;5019638;28;20577;-81
2022/01/16 08:43:39;;;;;;;6.15;5.55;;;3.50;99.90;;;;;;5019843;28;20191;-80
2022/01/16 08:46:05;;;;;;;2.97;2.85;;;3.60;99.90;;;;;;5018778;28;20196;-79
2022/01/16 08:48:34;;;;;;;34.97;5.15;;;3.60;99.90;;;;;;5019792;28;20206;-81
2022/01/16 08:51:01;;;;;;;3.42;2.78;;;3.60;99.90;;;;;;5018759;28;20211;-81
2022/01/16 08:53:28;;;;;;;6.22;5.40;;;3.70;99.90;;;;;;5019586;28;20243;-81
2022/01/16 08:55:55;;;;;;;3.75;2.92;;;3.70;99.90;;;;;;5019706;28;20207;-82
2022/01/16 08:58:22;;;;;;;6.10;5.20;;;3.80;99.90;;;;;;5019391;28;20215;-80
2022/01/16 09:00:50;;;;;;;5.43;2.45;;;3.80;99.90;;;;;;5018586;28;20196;-79
2022/01/16 09:03:17;;;;;;;17.15;8.95;;;3.90;99.90;;;;;;5018936;28;20216;-81
2022/01/16 09:05:46;;;;;;;29.27;9.27;;;3.90;99.90;;;;;;5018747;28;20207;-82
2022/01/16 09:08:13;;;;;;;10.10;6.18;;;3.90;99.90;;;;;;5019401;28;20196;-81
2022/01/16 09:10:41;;;;;;;6.50;5.28;;;4.00;99.90;;;;;;5018645;28;20204;-81
2022/01/16 09:13:08;;;;;;;4.97;4.63;;;4.00;99.90;;;;;;5019308;28;20219;-81
2022/01/16 09:15:35;;;;;;;1.65;1.55;;;4.00;99.90;;;;;;5019063;28;20287;-82
2022/01/16 09:18:02;;;;;;;17.42;12.98;;;4.00;99.90;;;;;;5019852;28;20216;-82
2022/01/16 09:20:28;;;;;;;6.97;4.47;;;4.10;99.90;;;;;;5018705;28;20204;-82
2022/01/16 09:22:56;;;;;;;12.98;5.95;;;4.10;99.90;;;;;;5018602;28;20240;-80
2022/01/16 09:25:23;;;;;;;22.30;15.18;;;4.20;99.90;;;;;;5018998;28;20585;-81
2022/01/16 09:27:50;;;;;;;7.10;4.88;;;4.20;99.90;;;;;;5018670;28;20194;-81
2022/01/16 09:30:17;;;;;;;11.13;3.25;;;4.20;99.90;;;;;;5017901;28;20670;-82
2022/01/16 09:32:44;;;;;;;8.52;3.58;;;4.20;99.90;;;;;;5018152;28;20212;-79
2022/01/16 09:35:12;;;;;;;5.10;3.45;;;4.30;99.90;;;;;;5018705;28;20199;-82
2022/01/16 09:37:39;;;;;;;13.65;7.63;;;4.30;99.90;;;;;;5018709;28;20220;-81
2022/01/16 09:40:09;;;;;;;21.70;6.47;;;4.40;99.90;;;;;;5018004;28;20188;-81
2022/01/16 09:42:37;;;;;;;14.00;9.93;;;4.40;99.90;;;;;;5017619;28;20224;-81
2022/01/16 09:45:06;;;;;;;12.15;5.68;;;4.40;99.90;;;;;;5017221;28;20211;-80
2022/01/16 09:47:33;;;;;;;1.70;1.60;;;4.40;99.90;;;;;;5018081;28;20196;-80
2022/01/16 09:50:04;;;;;;;7.15;4.70;;;4.40;99.90;;;;;;5018398;28;20196;-79
2022/01/16 09:52:32;;;;;;;16.20;4.82;;;4.50;99.90;;;;;;5018559;28;20224;-80
2022/01/16 09:54:58;;;;;;;3.15;2.25;;;4.50;99.90;;;;;;5017508;28;20203;-81
2022/01/16 09:57:27;;;;;;;2.25;2.15;;;4.50;99.90;;;;;;5017373;28;20212;-80
2022/01/16 09:59:53;;;;;;;0.50;0.40;;;4.60;99.90;;;;;;5016979;28;20200;-82
2022/01/16 10:02:20;;;;;;;6.72;3.40;;;4.60;99.90;;;;;;5017044;28;20223;-80
2022/01/16 10:04:47;;;;;;;2.65;1.77;;;4.70;99.90;;;;;;5016889;28;20658;-81
2022/01/16 10:07:16;;;;;;;3.83;3.53;;;4.60;99.90;;;;;;5017102;28;20570;-81
2022/01/16 10:09:45;;;;;;;9.38;3.72;;;4.60;99.90;;;;;;5016929;28;20278;-81
2022/01/16 10:12:16;;;;;;;14.02;7.13;;;4.70;99.90;;;;;;5017138;28;20238;-81
2022/01/16 10:14:47;;;;;;;16.98;6.75;;;4.70;99.90;;;;;;5016502;28;20230;-80
2022/01/16 10:17:17;;;;;;;1.90;1.63;;;4.70;99.90;;;;;;5017285;28;20195;-81
2022/01/16 10:19:44;;;;;;;8.65;6.47;;;4.80;99.90;;;;;;5016366;28;20207;-81
2022/01/16 10:22:13;;;;;;;5.47;4.20;;;4.80;99.90;;;;;;5074572;22;20219;-72
2022/01/16 10:24:41;;;;;;;3.65;3.42;;;4.80;99.90;;;;;;4996426;28;20200;-75
2022/01/16 10:27:14;;;;;;;22.17;11.30;;;4.80;99.90;;;;;;5006206;28;20192;-76
2022/01/16 10:29:43;;;;;;;6.55;6.00;;;4.80;99.90;;;;;;5013021;28;20204;-76
2022/01/16 10:32:17;;;;;;;5.00;4.53;;;4.90;99.90;;;;;;5013187;28;20223;-75
2022/01/16 10:34:45;;;;;;;7.60;3.00;;;4.90;99.90;;;;;;5013270;28;20188;-75
2022/01/16 10:37:20;;;;;;;0.50;0.50;;;4.80;99.90;;;;;;5011947;28;20290;-75
2022/01/16 10:39:53;;;;;;;10.88;5.10;;;4.90;99.90;;;;;;5012877;28;20688;-76
2022/01/16 10:42:20;;;;;;;3.72;2.80;;;4.90;99.90;;;;;;5012988;28;20571;-76
2022/01/16 10:44:54;;;;;;;3.85;3.58;;;4.90;99.90;;;;;;5013239;28;20207;-76
2022/01/16 10:47:28;;;;;;;10.85;6.68;;;5.00;99.90;;;;;;5012240;28;20183;-75
2022/01/16 10:50:09;;;;;;;8.95;6.20;;;5.00;99.90;;;;;;5012333;28;20557;-75
2022/01/16 10:52:47;;;;;;;12.50;7.43;;;5.00;99.90;;;;;;5013057;28;20216;-74
2022/01/16 10:55:15;;;;;;;8.82;6.95;;;5.10;99.90;;;;;;5012707;28;20196;-76
2022/01/16 10:57:42;;;;;;;13.35;4.15;;;5.10;99.90;;;;;;5012625;28;20577;-76
2022/01/16 11:00:15;;;;;;;7.93;6.18;;;5.10;99.90;;;;;;5012482;28;20206;-75
2022/01/16 11:02:45;;;;;;;8.48;5.50;;;5.10;99.90;;;;;;5012715;28;20231;-75
2022/01/16 11:05:14;;;;;;;7.13;4.70;;;5.10;99.90;;;;;;5012919;28;20203;-76
2022/01/16 11:07:42;;;;;;;5.95;3.88;;;5.10;99.90;;;;;;5012752;28;20609;-75
2022/01/16 11:10:30;;;;;;;7.88;6.25;;;5.10;99.90;;;;;;5012224;28;20223;-74
2022/01/16 11:12:59;;;;;;;10.52;5.55;;;5.10;99.90;;;;;;5008158;28;20220;-74
2022/01/16 11:15:27;;;;;;;6.20;4.07;;;5.20;99.90;;;;;;5012672;28;20220;-76
2022/01/16 11:17:55;;;;;;;7.20;6.57;;;5.20;99.90;;;;;;5012616;28;20589;-76
2022/01/16 11:20:29;;;;;;;5.63;4.32;;;5.20;99.90;;;;;;5012002;28;20207;-76
2022/01/16 11:22:58;;;;;;;10.43;5.53;;;5.20;99.90;;;;;;5011828;28;20593;-74
2022/01/16 11:25:32;;;;;;;1.65;1.55;;;5.10;99.90;;;;;;5012574;28;20615;-75
2022/01/16 11:28:01;;;;;;;11.65;8.38;;;5.10;99.90;;;;;;5012292;28;20199;-76
2022/01/16 11:30:29;;;;;;;5.97;5.70;;;5.20;99.90;;;;;;5012045;28;20204;-76
2022/01/16 11:32:57;;;;;;;10.65;4.55;;;5.20;99.90;;;;;;5012138;28;20247;-74
2022/01/16 11:35:24;;;;;;;2.33;2.15;;;5.20;99.90;;;;;;5011947;28;20250;-76
2022/01/16 11:37:52;;;;;;;17.13;9.55;;;5.30;99.90;;;;;;5012425;28;20201;-77
2022/01/16 11:40:27;;;;;;;4.45;3.80;;;5.40;99.90;;;;;;5011864;28;20209;-76
2022/01/16 11:43:14;;;;;;;3.45;3.15;;;5.40;99.90;;;;;;5012530;28;20558;-76
2022/01/16 11:46:02;;;;;;;12.35;5.70;;;5.60;99.90;;;;;;5012190;28;20196;-75
2022/01/16 11:48:46;;;;;;;1.80;1.70;;;5.60;99.90;;;;;;5012107;28;20197;-75
2022/01/16 11:51:52;;;;;;;22.30;9.13;;;5.70;99.90;;;;;;5011945;28;20185;-76
2022/01/16 11:54:35;;;;;;;0.50;0.40;;;5.60;99.90;;;;;;5012393;28;20202;-76
2022/01/16 11:57:28;;;;;;;6.82;6.32;;;5.70;99.90;;;;;;5012183;28;20578;-74
2022/01/16 12:00:08;;;;;;;2.60;1.40;;;5.90;99.90;;;;;;5012008;28;20220;-76
2022/01/16 12:02:39;;;;;;;3.20;3.08;;;5.90;99.90;;;;;;5012152;28;20219;-76
2022/01/16 12:05:08;;;;;;;11.80;6.25;;;5.90;99.90;;;;;;5011991;28;20199;-75
2022/01/16 12:07:53;;;;;;;3.78;3.47;;;6.00;99.90;;;;;;5015775;28;20196;-75
2022/01/16 12:10:40;;;;;;;11.63;6.47;;;5.80;99.90;;;;;;5015539;28;20187;-76
2022/01/16 12:13:37;;;;;;;5.50;2.13;;;5.80;99.90;;;;;;5015832;28;20227;-76
2022/01/16 12:16:40;;;;;;;2.45;2.35;;;5.80;99.90;;;;;;5015418;28;20207;-76
2022/01/16 12:19:36;;;;;;;1.45;1.35;;;5.80;99.90;;;;;;5015257;28;20274;-75
2022/01/16 12:22:07;;;;;;;6.65;4.97;;;6.00;99.90;;;;;;5015912;28;20538;-76
2022/01/16 12:24:40;;;;;;;4.32;3.90;;;6.10;99.90;;;;;;5015567;28;20561;-76
2022/01/16 12:27:28;;;;;;;12.85;6.00;;;6.10;99.90;;;;;;5015481;28;20219;-76
2022/01/16 12:30:21;;;;;;;8.75;5.75;;;6.00;99.90;;;;;;5015299;28;20264;-76
2022/01/16 12:32:53;;;;;;;3.05;2.70;;;5.80;99.90;;;;;;5015930;28;20239;-76
2022/01/16 12:36:10;;;;;;;24.88;3.15;;;5.80;99.90;;;;;;5014870;28;20200;-76
2022/01/16 12:39:00;;;;;;;5.40;5.05;;;5.70;99.90;;;;;;4954588;29;20217;-76
2022/01/16 12:41:31;;;;;;;0.60;0.50;;;5.70;99.90;;;;;;4955030;29;20557;-76
2022/01/16 12:44:00;;;;;;;3.58;3.38;;;5.70;99.90;;;;;;4999677;28;20727;-75
2022/01/16 12:46:31;;;;;;;3.42;2.83;;;5.70;99.90;;;;;;5015331;28;20208;-76
2022/01/16 12:49:02;;;;;;;13.55;6.75;;;5.70;99.90;;;;;;5014874;28;20199;-75
2022/01/16 12:51:31;;;;;;;0.80;0.80;;;5.50;99.90;;;;;;5015222;28;20204;-76
2022/01/16 12:54:03;;;;;;;4.97;4.68;;;5.50;99.90;;;;;;5015434;28;20220;-75
2022/01/16 12:56:33;;;;;;;7.80;2.65;;;5.40;99.90;;;;;;5015759;28;20185;-76
2022/01/16 12:59:11;;;;;;;3.10;1.35;;;5.30;99.90;;;;;;5015054;28;20368;-76
2022/01/16 13:01:44;;;;;;;4.70;2.97;;;5.40;99.90;;;;;;5015440;28;20227;-76
2022/01/16 13:04:22;;;;;;;0.60;0.60;;;5.30;99.90;;;;;;5015541;28;20216;-75
2022/01/16 13:06:50;;;;;;;3.42;2.90;;;5.30;99.90;;;;;;5015526;28;20203;-75
2022/01/16 13:09:18;;;;;;;1.25;1.25;;;5.30;99.90;;;;;;5014482;28;20201;-76
2022/01/16 13:11:47;;;;;;;1.15;1.15;;;5.30;99.90;;;;;;5015056;28;20674;-76
2022/01/16 13:14:16;;;;;;;4.55;4.05;;;5.30;99.90;;;;;;5014717;28;20215;-76
2022/01/16 13:16:44;;;;;;;19.52;6.13;;;5.30;99.90;;;;;;5014481;28;20215;-76
2022/01/16 13:19:15;;;;;;;4.50;4.20;;;5.30;99.90;;;;;;5014407;28;20227;-75
2022/01/16 13:21:47;;;;;;;8.48;4.50;;;5.30;99.90;;;;;;5014646;28;20196;-76
2022/01/16 13:24:30;;;;;;;1.98;1.85;;;5.30;99.90;;;;;;5014232;28;20249;-76
2022/01/16 13:26:58;;;;;;;1.67;1.58;;;5.30;99.90;;;;;;5014310;28;20200;-75
2022/01/16 13:29:26;;;;;;;5.70;5.20;;;5.30;99.90;;;;;;5014145;28;20198;-75
2022/01/16 13:31:52;;;;;;;5.78;4.25;;;5.30;99.90;;;;;;5014349;28;20216;-75
2022/01/16 13:34:31;;;;;;;9.40;5.88;;;5.30;99.90;;;;;;5014628;28;20216;-76
2022/01/16 13:36:59;;;;;;;4.20;2.67;;;5.40;99.90;;;;;;5014770;28;20184;-76
2022/01/16 13:39:41;;;;;;;1.23;1.10;;;5.40;99.90;;;;;;5014538;28;20215;-76
2022/01/16 13:42:18;;;;;;;2.60;2.45;;;5.50;99.90;;;;;;5014860;28;20206;-76
2022/01/16 13:44:45;;;;;;;2.55;1.80;;;5.50;99.90;;;;;;5014699;28;20180;-76
2022/01/16 13:47:17;;;;;;;16.35;8.73;;;5.60;99.90;;;;;;5014030;28;20201;-76